sensor_id;sensor_type;location;lat;lon;timestamp;P1;durP1;ratioP1;P2;durP2;ratioP2
48629;SDS011;34426;52.180;4.462;2023-04-24T00:01:39;17.10;;;2.05;;
48629;SDS011;34426;52.180;4.462;2023-04-24T00:04:10;16.38;;;2.03;;
48629;SDS011;34426;52.180;4.462;2023-04-24T00:06:40;19.75;;;2.65;;
48629;SDS011;34426;52.180;4.462;2023-04-24T00:11:37;14.63;;;2.15;;
48629;SDS011;34426;52.180;4.462;2023-04-24T00:14:04;12.00;;;2.65;;
48629;SDS011;34426;52.180;4.462;2023-04-24T00:16:32;18.92;;;2.75;;
48629;SDS011;34426;52.180;4.462;2023-04-24T00:19:01;15.55;;;3.50;;
48629;SDS011;34426;52.180;4.462;2023-04-24T00:21:29;26.65;;;3.33;;
48629;SDS011;34426;52.180;4.462;2023-04-24T00:23:57;16.95;;;2.30;;
48629;SDS011;34426;52.180;4.462;2023-04-24T00:26:24;16.92;;;3.13;;
48629;SDS011;34426;52.180;4.462;2023-04-24T00:28:52;19.88;;;3.45;;
48629;SDS011;34426;52.180;4.462;2023-04-24T00:31:21;22.30;;;3.58;;
48629;SDS011;34426;52.180;4.462;2023-04-24T00:33:58;15.65;;;2.90;;
48629;SDS011;34426;52.180;4.462;2023-04-24T00:36:28;18.23;;;2.85;;
48629;SDS011;34426;52.180;4.462;2023-04-24T00:38:56;15.90;;;2.22;;
48629;SDS011;34426;52.180;4.462;2023-04-24T00:41:24;15.20;;;2.72;;
48629;SDS011;34426;52.180;4.462;2023-04-24T00:43:52;19.52;;;2.67;;
48629;SDS011;34426;52.180;4.462;2023-04-24T00:46:21;15.63;;;2.45;;
48629;SDS011;34426;52.180;4.462;2023-04-24T00:48:48;15.50;;;2.60;;
48629;SDS011;34426;52.180;4.462;2023-04-24T00:51:21;17.55;;;2.75;;
48629;SDS011;34426;52.180;4.462;2023-04-24T00:53:49;15.73;;;2.20;;
48629;SDS011;34426;52.180;4.462;2023-04-24T00:56:17;15.32;;;2.38;;
48629;SDS011;34426;52.180;4.462;2023-04-24T00:58:44;16.63;;;2.53;;
48629;SDS011;34426;52.180;4.462;2023-04-24T01:01:13;18.73;;;2.30;;
48629;SDS011;34426;52.180;4.462;2023-04-24T01:03:43;17.13;;;2.28;;
48629;SDS011;34426;52.180;4.462;2023-04-24T01:06:11;13.73;;;2.03;;
48629;SDS011;34426;52.180;4.462;2023-04-24T01:08:44;11.23;;;2.22;;
48629;SDS011;34426;52.180;4.462;2023-04-24T01:11:12;11.85;;;2.28;;
48629;SDS011;34426;52.180;4.462;2023-04-24T01:13:40;10.65;;;2.25;;
48629;SDS011;34426;52.180;4.462;2023-04-24T01:16:08;22.40;;;3.28;;
48629;SDS011;34426;52.180;4.462;2023-04-24T01:18:39;13.23;;;2.33;;
48629;SDS011;34426;52.180;4.462;2023-04-24T01:21:09;17.67;;;2.67;;
48629;SDS011;34426;52.180;4.462;2023-04-24T01:23:41;23.77;;;2.45;;
48629;SDS011;34426;52.180;4.462;2023-04-24T01:26:12;12.45;;;2.88;;
48629;SDS011;34426;52.180;4.462;2023-04-24T01:28:43;19.27;;;3.05;;
48629;SDS011;34426;52.180;4.462;2023-04-24T01:31:21;11.15;;;2.25;;
48629;SDS011;34426;52.180;4.462;2023-04-24T01:33:52;16.23;;;2.97;;
48629;SDS011;34426;52.180;4.462;2023-04-24T01:36:21;11.25;;;2.83;;
48629;SDS011;34426;52.180;4.462;2023-04-24T01:38:51;13.55;;;2.70;;
48629;SDS011;34426;52.180;4.462;2023-04-24T01:41:19;10.32;;;2.30;;
48629;SDS011;34426;52.180;4.462;2023-04-24T01:43:47;10.20;;;2.30;;
48629;SDS011;34426;52.180;4.462;2023-04-24T01:46:15;11.73;;;2.75;;
48629;SDS011;34426;52.180;4.462;2023-04-24T01:48:43;13.68;;;2.92;;
48629;SDS011;34426;52.180;4.462;2023-04-24T01:51:12;18.08;;;4.47;;
48629;SDS011;34426;52.180;4.462;2023-04-24T01:53:39;14.43;;;2.55;;
48629;SDS011;34426;52.180;4.462;2023-04-24T01:56:09;12.75;;;2.60;;
48629;SDS011;34426;52.180;4.462;2023-04-24T01:58:37;9.52;;;2.40;;
48629;SDS011;34426;52.180;4.462;2023-04-24T02:01:07;10.05;;;2.78;;
48629;SDS011;34426;52.180;4.462;2023-04-24T02:03:34;9.65;;;3.30;;
48629;SDS011;34426;52.180;4.462;2023-04-24T02:06:02;10.07;;;2.67;;
48629;SDS011;34426;52.180;4.462;2023-04-24T02:08:33;9.85;;;2.67;;
48629;SDS011;34426;52.180;4.462;2023-04-24T02:11:00;15.73;;;3.50;;
48629;SDS011;34426;52.180;4.462;2023-04-24T02:13:35;12.52;;;2.90;;
48629;SDS011;34426;52.180;4.462;2023-04-24T02:16:06;11.32;;;2.47;;
48629;SDS011;34426;52.180;4.462;2023-04-24T02:18:34;17.63;;;2.42;;
48629;SDS011;34426;52.180;4.462;2023-04-24T02:21:02;7.07;;;2.03;;
48629;SDS011;34426;52.180;4.462;2023-04-24T02:23:30;10.85;;;2.45;;
48629;SDS011;34426;52.180;4.462;2023-04-24T02:25:57;7.57;;;2.17;;
48629;SDS011;34426;52.180;4.462;2023-04-24T02:28:27;7.50;;;2.40;;
48629;SDS011;34426;52.180;4.462;2023-04-24T02:30:57;8.70;;;2.63;;
48629;SDS011;34426;52.180;4.462;2023-04-24T02:33:24;9.63;;;2.70;;
48629;SDS011;34426;52.180;4.462;2023-04-24T02:35:52;11.15;;;2.17;;
48629;SDS011;34426;52.180;4.462;2023-04-24T02:38:19;14.90;;;2.78;;
48629;SDS011;34426;52.180;4.462;2023-04-24T02:40:46;13.95;;;2.80;;
48629;SDS011;34426;52.180;4.462;2023-04-24T02:43:14;8.00;;;2.50;;
48629;SDS011;34426;52.180;4.462;2023-04-24T02:45:41;18.70;;;2.85;;
48629;SDS011;34426;52.180;4.462;2023-04-24T02:48:10;11.13;;;3.30;;
48629;SDS011;34426;52.180;4.462;2023-04-24T02:50:38;13.43;;;2.65;;
48629;SDS011;34426;52.180;4.462;2023-04-24T02:53:05;11.85;;;2.90;;
48629;SDS011;34426;52.180;4.462;2023-04-24T02:55:32;10.57;;;3.22;;
48629;SDS011;34426;52.180;4.462;2023-04-24T02:58:00;9.38;;;2.90;;
48629;SDS011;34426;52.180;4.462;2023-04-24T03:00:28;10.32;;;3.15;;
48629;SDS011;34426;52.180;4.462;2023-04-24T03:02:55;7.47;;;3.30;;
48629;SDS011;34426;52.180;4.462;2023-04-24T03:05:25;8.85;;;3.25;;
48629;SDS011;34426;52.180;4.462;2023-04-24T03:07:52;5.55;;;3.17;;
48629;SDS011;34426;52.180;4.462;2023-04-24T03:10:20;14.85;;;4.10;;
48629;SDS011;34426;52.180;4.462;2023-04-24T03:12:47;7.82;;;3.80;;
48629;SDS011;34426;52.180;4.462;2023-04-24T03:15:15;11.57;;;4.28;;
48629;SDS011;34426;52.180;4.462;2023-04-24T03:17:42;9.57;;;4.05;;
48629;SDS011;34426;52.180;4.462;2023-04-24T03:20:10;9.10;;;3.95;;
48629;SDS011;34426;52.180;4.462;2023-04-24T03:22:43;9.95;;;3.08;;
48629;SDS011;34426;52.180;4.462;2023-04-24T03:25:10;12.95;;;2.75;;
48629;SDS011;34426;52.180;4.462;2023-04-24T03:27:38;17.15;;;2.53;;
48629;SDS011;34426;52.180;4.462;2023-04-24T03:30:08;7.95;;;1.45;;
48629;SDS011;34426;52.180;4.462;2023-04-24T03:32:36;4.03;;;1.33;;
48629;SDS011;34426;52.180;4.462;2023-04-24T03:35:03;8.70;;;1.35;;
48629;SDS011;34426;52.180;4.462;2023-04-24T03:37:31;8.35;;;1.25;;
48629;SDS011;34426;52.180;4.462;2023-04-24T03:40:01;10.07;;;1.30;;
48629;SDS011;34426;52.180;4.462;2023-04-24T03:42:29;8.52;;;1.13;;
48629;SDS011;34426;52.180;4.462;2023-04-24T03:44:56;7.80;;;0.80;;
48629;SDS011;34426;52.180;4.462;2023-04-24T03:47:24;3.70;;;0.70;;
48629;SDS011;34426;52.180;4.462;2023-04-24T03:49:55;7.38;;;1.08;;
48629;SDS011;34426;52.180;4.462;2023-04-24T03:52:28;10.10;;;1.10;;
48629;SDS011;34426;52.180;4.462;2023-04-24T03:54:58;6.88;;;1.10;;
48629;SDS011;34426;52.180;4.462;2023-04-24T03:57:31;6.47;;;0.98;;
48629;SDS011;34426;52.180;4.462;2023-04-24T03:59:58;3.60;;;0.90;;
48629;SDS011;34426;52.180;4.462;2023-04-24T04:02:28;8.57;;;1.45;;
48629;SDS011;34426;52.180;4.462;2023-04-24T04:04:56;10.65;;;1.40;;
48629;SDS011;34426;52.180;4.462;2023-04-24T04:07:23;6.07;;;1.00;;
48629;SDS011;34426;52.180;4.462;2023-04-24T04:09:54;10.40;;;1.33;;
48629;SDS011;34426;52.180;4.462;2023-04-24T04:12:23;7.78;;;1.30;;
48629;SDS011;34426;52.180;4.462;2023-04-24T04:14:51;4.50;;;1.30;;
48629;SDS011;34426;52.180;4.462;2023-04-24T04:17:18;10.00;;;1.80;;
48629;SDS011;34426;52.180;4.462;2023-04-24T04:19:45;15.65;;;1.98;;
48629;SDS011;34426;52.180;4.462;2023-04-24T04:22:13;21.77;;;2.80;;
48629;SDS011;34426;52.180;4.462;2023-04-24T04:24:40;14.32;;;3.83;;
48629;SDS011;34426;52.180;4.462;2023-04-24T04:27:08;25.10;;;5.68;;
48629;SDS011;34426;52.180;4.462;2023-04-24T04:29:37;25.35;;;5.18;;
48629;SDS011;34426;52.180;4.462;2023-04-24T04:32:05;26.30;;;7.15;;
48629;SDS011;34426;52.180;4.462;2023-04-24T04:34:32;40.38;;;9.50;;
48629;SDS011;34426;52.180;4.462;2023-04-24T04:37:00;37.90;;;9.73;;
48629;SDS011;34426;52.180;4.462;2023-04-24T04:39:28;29.48;;;9.00;;
48629;SDS011;34426;52.180;4.462;2023-04-24T04:41:56;30.92;;;9.43;;
48629;SDS011;34426;52.180;4.462;2023-04-24T04:44:23;35.33;;;8.82;;
48629;SDS011;34426;52.180;4.462;2023-04-24T04:46:53;28.52;;;8.68;;
48629;SDS011;34426;52.180;4.462;2023-04-24T04:49:20;31.77;;;9.25;;
48629;SDS011;34426;52.180;4.462;2023-04-24T04:51:48;31.85;;;7.15;;
48629;SDS011;34426;52.180;4.462;2023-04-24T04:54:15;25.58;;;8.25;;
48629;SDS011;34426;52.180;4.462;2023-04-24T04:56:43;34.38;;;10.27;;
48629;SDS011;34426;52.180;4.462;2023-04-24T04:59:10;35.60;;;11.75;;
48629;SDS011;34426;52.180;4.462;2023-04-24T05:01:37;45.58;;;15.63;;
48629;SDS011;34426;52.180;4.462;2023-04-24T05:04:07;40.75;;;17.52;;
48629;SDS011;34426;52.180;4.462;2023-04-24T05:06:34;52.20;;;21.13;;
48629;SDS011;34426;52.180;4.462;2023-04-24T05:09:02;45.78;;;20.80;;
48629;SDS011;34426;52.180;4.462;2023-04-24T05:11:29;55.00;;;24.63;;
48629;SDS011;34426;52.180;4.462;2023-04-24T05:14:02;62.22;;;24.27;;
48629;SDS011;34426;52.180;4.462;2023-04-24T05:18:59;48.53;;;19.67;;
48629;SDS011;34426;52.180;4.462;2023-04-24T05:21:31;52.83;;;18.52;;
48629;SDS011;34426;52.180;4.462;2023-04-24T05:23:58;42.28;;;17.80;;
48629;SDS011;34426;52.180;4.462;2023-04-24T05:26:26;50.88;;;18.00;;
48629;SDS011;34426;52.180;4.462;2023-04-24T05:28:53;54.33;;;17.38;;
48629;SDS011;34426;52.180;4.462;2023-04-24T05:31:24;45.50;;;16.20;;
48629;SDS011;34426;52.180;4.462;2023-04-24T05:33:51;40.28;;;14.68;;
48629;SDS011;34426;52.180;4.462;2023-04-24T05:36:19;47.38;;;14.70;;
48629;SDS011;34426;52.180;4.462;2023-04-24T05:38:48;34.72;;;14.75;;
48629;SDS011;34426;52.180;4.462;2023-04-24T05:41:18;39.80;;;14.93;;
48629;SDS011;34426;52.180;4.462;2023-04-24T05:43:46;45.13;;;14.90;;
48629;SDS011;34426;52.180;4.462;2023-04-24T05:46:14;38.08;;;13.27;;
48629;SDS011;34426;52.180;4.462;2023-04-24T05:48:41;43.55;;;13.63;;
48629;SDS011;34426;52.180;4.462;2023-04-24T05:51:09;50.17;;;14.55;;
48629;SDS011;34426;52.180;4.462;2023-04-24T05:53:37;44.10;;;14.40;;
48629;SDS011;34426;52.180;4.462;2023-04-24T05:56:06;46.17;;;12.82;;
48629;SDS011;34426;52.180;4.462;2023-04-24T05:58:33;45.50;;;12.45;;
48629;SDS011;34426;52.180;4.462;2023-04-24T06:01:01;62.63;;;10.88;;
48629;SDS011;34426;52.180;4.462;2023-04-24T06:03:31;56.20;;;9.77;;
48629;SDS011;34426;52.180;4.462;2023-04-24T06:06:02;44.47;;;10.43;;
48629;SDS011;34426;52.180;4.462;2023-04-24T06:08:30;51.47;;;10.77;;
48629;SDS011;34426;52.180;4.462;2023-04-24T06:10:57;59.17;;;11.35;;
48629;SDS011;34426;52.180;4.462;2023-04-24T06:13:26;41.35;;;8.20;;
48629;SDS011;34426;52.180;4.462;2023-04-24T06:15:54;42.90;;;9.15;;
48629;SDS011;34426;52.180;4.462;2023-04-24T06:18:24;48.05;;;8.90;;
48629;SDS011;34426;52.180;4.462;2023-04-24T06:20:52;47.38;;;9.13;;
48629;SDS011;34426;52.180;4.462;2023-04-24T06:23:19;46.72;;;9.10;;
48629;SDS011;34426;52.180;4.462;2023-04-24T06:25:46;37.28;;;7.05;;
48629;SDS011;34426;52.180;4.462;2023-04-24T06:28:17;37.67;;;7.80;;
48629;SDS011;34426;52.180;4.462;2023-04-24T06:30:46;39.33;;;7.63;;
48629;SDS011;34426;52.180;4.462;2023-04-24T06:33:14;36.20;;;6.78;;
48629;SDS011;34426;52.180;4.462;2023-04-24T06:35:41;31.85;;;8.20;;
48629;SDS011;34426;52.180;4.462;2023-04-24T06:38:11;43.40;;;8.10;;
48629;SDS011;34426;52.180;4.462;2023-04-24T06:40:39;47.25;;;8.43;;
48629;SDS011;34426;52.180;4.462;2023-04-24T06:43:06;47.40;;;8.25;;
48629;SDS011;34426;52.180;4.462;2023-04-24T06:45:34;38.35;;;9.43;;
48629;SDS011;34426;52.180;4.462;2023-04-24T06:48:03;44.15;;;7.22;;
48629;SDS011;34426;52.180;4.462;2023-04-24T06:50:33;39.67;;;7.90;;
48629;SDS011;34426;52.180;4.462;2023-04-24T06:53:01;53.08;;;9.48;;
48629;SDS011;34426;52.180;4.462;2023-04-24T06:55:29;39.63;;;6.55;;
48629;SDS011;34426;52.180;4.462;2023-04-24T06:57:57;36.42;;;6.35;;
48629;SDS011;34426;52.180;4.462;2023-04-24T07:00:25;41.35;;;7.75;;
48629;SDS011;34426;52.180;4.462;2023-04-24T07:02:52;46.33;;;7.60;;
48629;SDS011;34426;52.180;4.462;2023-04-24T07:05:22;37.47;;;6.07;;
48629;SDS011;34426;52.180;4.462;2023-04-24T07:07:50;27.15;;;5.30;;
48629;SDS011;34426;52.180;4.462;2023-04-24T07:10:18;29.50;;;4.65;;
48629;SDS011;34426;52.180;4.462;2023-04-24T07:12:45;32.13;;;4.97;;
48629;SDS011;34426;52.180;4.462;2023-04-24T07:15:13;25.83;;;4.68;;
48629;SDS011;34426;52.180;4.462;2023-04-24T07:17:41;33.10;;;4.65;;
48629;SDS011;34426;52.180;4.462;2023-04-24T07:20:09;30.00;;;5.15;;
48629;SDS011;34426;52.180;4.462;2023-04-24T07:22:39;36.78;;;4.68;;
48629;SDS011;34426;52.180;4.462;2023-04-24T07:25:06;28.63;;;4.88;;
48629;SDS011;34426;52.180;4.462;2023-04-24T07:27:35;35.65;;;5.53;;
48629;SDS011;34426;52.180;4.462;2023-04-24T07:30:03;35.75;;;5.53;;
48629;SDS011;34426;52.180;4.462;2023-04-24T07:32:31;26.95;;;5.05;;
48629;SDS011;34426;52.180;4.462;2023-04-24T07:34:59;28.33;;;4.65;;
48629;SDS011;34426;52.180;4.462;2023-04-24T07:37:27;34.15;;;5.35;;
48629;SDS011;34426;52.180;4.462;2023-04-24T07:39:56;27.40;;;4.35;;
48629;SDS011;34426;52.180;4.462;2023-04-24T07:42:24;29.98;;;4.55;;
48629;SDS011;34426;52.180;4.462;2023-04-24T07:44:52;31.33;;;4.72;;
48629;SDS011;34426;52.180;4.462;2023-04-24T07:47:20;31.35;;;5.00;;
48629;SDS011;34426;52.180;4.462;2023-04-24T07:49:47;29.02;;;4.80;;
48629;SDS011;34426;52.180;4.462;2023-04-24T07:52:14;31.17;;;4.88;;
48629;SDS011;34426;52.180;4.462;2023-04-24T07:54:41;34.30;;;4.35;;
48629;SDS011;34426;52.180;4.462;2023-04-24T07:57:10;30.17;;;4.68;;
48629;SDS011;34426;52.180;4.462;2023-04-24T07:59:38;26.70;;;4.03;;
48629;SDS011;34426;52.180;4.462;2023-04-24T08:02:05;19.17;;;3.92;;
48629;SDS011;34426;52.180;4.462;2023-04-24T08:04:33;23.95;;;3.58;;
48629;SDS011;34426;52.180;4.462;2023-04-24T08:07:01;20.13;;;3.50;;
48629;SDS011;34426;52.180;4.462;2023-04-24T08:09:28;15.90;;;3.65;;
48629;SDS011;34426;52.180;4.462;2023-04-24T08:11:56;24.55;;;4.00;;
48629;SDS011;34426;52.180;4.462;2023-04-24T08:14:25;29.25;;;3.65;;
48629;SDS011;34426;52.180;4.462;2023-04-24T08:16:53;27.00;;;4.25;;
48629;SDS011;34426;52.180;4.462;2023-04-24T08:19:21;27.83;;;3.22;;
48629;SDS011;34426;52.180;4.462;2023-04-24T08:21:48;21.40;;;3.70;;
48629;SDS011;34426;52.180;4.462;2023-04-24T08:24:14;16.75;;;2.75;;
48629;SDS011;34426;52.180;4.462;2023-04-24T08:26:40;21.48;;;3.45;;
48629;SDS011;34426;52.180;4.462;2023-04-24T08:29:06;17.15;;;3.00;;
48629;SDS011;34426;52.180;4.462;2023-04-24T08:31:33;16.92;;;3.63;;
48629;SDS011;34426;52.180;4.462;2023-04-24T08:33:58;13.50;;;2.33;;
48629;SDS011;34426;52.180;4.462;2023-04-24T08:36:24;17.58;;;3.13;;
48629;SDS011;34426;52.180;4.462;2023-04-24T08:38:50;14.40;;;3.75;;
48629;SDS011;34426;52.180;4.462;2023-04-24T08:41:15;30.23;;;4.50;;
48629;SDS011;34426;52.180;4.462;2023-04-24T08:43:43;18.63;;;2.65;;
48629;SDS011;34426;52.180;4.462;2023-04-24T08:46:11;16.48;;;2.72;;
48629;SDS011;34426;52.180;4.462;2023-04-24T08:48:39;10.93;;;2.28;;
48629;SDS011;34426;52.180;4.462;2023-04-24T08:51:05;16.23;;;2.67;;
48629;SDS011;34426;52.180;4.462;2023-04-24T08:53:33;12.70;;;2.17;;
48629;SDS011;34426;52.180;4.462;2023-04-24T08:55:59;12.75;;;2.40;;
48629;SDS011;34426;52.180;4.462;2023-04-24T08:58:26;11.40;;;2.10;;
48629;SDS011;34426;52.180;4.462;2023-04-24T09:00:54;17.67;;;2.85;;
48629;SDS011;34426;52.180;4.462;2023-04-24T09:03:21;12.32;;;1.50;;
48629;SDS011;34426;52.180;4.462;2023-04-24T09:05:49;15.85;;;2.42;;
48629;SDS011;34426;52.180;4.462;2023-04-24T09:08:15;19.83;;;3.28;;
48629;SDS011;34426;52.180;4.462;2023-04-24T09:10:43;10.48;;;1.50;;
48629;SDS011;34426;52.180;4.462;2023-04-24T09:13:08;10.45;;;1.60;;
48629;SDS011;34426;52.180;4.462;2023-04-24T09:15:34;8.50;;;1.38;;
48629;SDS011;34426;52.180;4.462;2023-04-24T09:18:00;8.15;;;2.20;;
48629;SDS011;34426;52.180;4.462;2023-04-24T09:20:26;8.63;;;2.10;;
48629;SDS011;34426;52.180;4.462;2023-04-24T09:22:54;12.27;;;1.83;;
48629;SDS011;34426;52.180;4.462;2023-04-24T09:25:22;12.50;;;1.42;;
48629;SDS011;34426;52.180;4.462;2023-04-24T09:27:53;11.40;;;2.20;;
48629;SDS011;34426;52.180;4.462;2023-04-24T09:30:20;8.48;;;1.75;;
48629;SDS011;34426;52.180;4.462;2023-04-24T09:32:46;5.10;;;1.10;;
48629;SDS011;34426;52.180;4.462;2023-04-24T09:35:13;4.40;;;1.25;;
48629;SDS011;34426;52.180;4.462;2023-04-24T09:37:41;14.20;;;1.95;;
48629;SDS011;34426;52.180;4.462;2023-04-24T09:40:10;20.67;;;2.45;;
48629;SDS011;34426;52.180;4.462;2023-04-24T09:42:36;13.38;;;2.22;;
48629;SDS011;34426;52.180;4.462;2023-04-24T09:45:02;8.77;;;2.13;;
48629;SDS011;34426;52.180;4.462;2023-04-24T09:47:29;9.93;;;2.03;;
48629;SDS011;34426;52.180;4.462;2023-04-24T09:50:01;9.80;;;1.88;;
48629;SDS011;34426;52.180;4.462;2023-04-24T09:52:34;7.72;;;2.33;;
48629;SDS011;34426;52.180;4.462;2023-04-24T09:55:10;21.63;;;2.65;;
48629;SDS011;34426;52.180;4.462;2023-04-24T09:57:40;13.60;;;2.00;;
48629;SDS011;34426;52.180;4.462;2023-04-24T10:00:12;10.45;;;1.42;;
48629;SDS011;34426;52.180;4.462;2023-04-24T10:02:42;8.30;;;1.45;;
48629;SDS011;34426;52.180;4.462;2023-04-24T10:05:08;4.50;;;1.40;;
48629;SDS011;34426;52.180;4.462;2023-04-24T10:07:37;8.65;;;1.55;;
48629;SDS011;34426;52.180;4.462;2023-04-24T10:10:03;10.00;;;1.45;;
48629;SDS011;34426;52.180;4.462;2023-04-24T10:12:33;11.40;;;1.40;;
48629;SDS011;34426;52.180;4.462;2023-04-24T10:14:59;13.02;;;1.42;;
48629;SDS011;34426;52.180;4.462;2023-04-24T10:17:25;12.50;;;1.60;;
48629;SDS011;34426;52.180;4.462;2023-04-24T10:19:52;11.80;;;2.22;;
48629;SDS011;34426;52.180;4.462;2023-04-24T10:22:18;17.55;;;2.47;;
48629;SDS011;34426;52.180;4.462;2023-04-24T10:24:45;15.10;;;2.00;;
48629;SDS011;34426;52.180;4.462;2023-04-24T10:27:13;11.75;;;1.83;;
48629;SDS011;34426;52.180;4.462;2023-04-24T10:29:41;12.40;;;2.63;;
48629;SDS011;34426;52.180;4.462;2023-04-24T10:32:08;11.95;;;2.10;;
48629;SDS011;34426;52.180;4.462;2023-04-24T10:34:33;11.13;;;2.38;;
48629;SDS011;34426;52.180;4.462;2023-04-24T10:36:59;16.50;;;2.67;;
48629;SDS011;34426;52.180;4.462;2023-04-24T10:39:24;18.65;;;2.63;;
48629;SDS011;34426;52.180;4.462;2023-04-24T10:41:50;17.63;;;2.60;;
48629;SDS011;34426;52.180;4.462;2023-04-24T10:44:16;13.75;;;2.67;;
48629;SDS011;34426;52.180;4.462;2023-04-24T10:46:43;13.35;;;2.88;;
48629;SDS011;34426;52.180;4.462;2023-04-24T10:49:10;18.70;;;2.53;;
48629;SDS011;34426;52.180;4.462;2023-04-24T10:51:44;18.48;;;2.88;;
48629;SDS011;34426;52.180;4.462;2023-04-24T10:54:21;13.90;;;2.17;;
48629;SDS011;34426;52.180;4.462;2023-04-24T10:56:47;11.90;;;2.15;;
48629;SDS011;34426;52.180;4.462;2023-04-24T10:59:13;14.00;;;1.95;;
48629;SDS011;34426;52.180;4.462;2023-04-24T11:01:53;13.20;;;2.03;;
48629;SDS011;34426;52.180;4.462;2023-04-24T11:04:28;13.90;;;2.40;;
48629;SDS011;34426;52.180;4.462;2023-04-24T11:06:54;17.48;;;2.75;;
48629;SDS011;34426;52.180;4.462;2023-04-24T11:09:20;14.20;;;2.60;;
48629;SDS011;34426;52.180;4.462;2023-04-24T11:11:46;20.20;;;2.13;;
48629;SDS011;34426;52.180;4.462;2023-04-24T11:14:14;16.42;;;2.13;;
48629;SDS011;34426;52.180;4.462;2023-04-24T11:16:43;20.10;;;2.20;;
48629;SDS011;34426;52.180;4.462;2023-04-24T11:19:18;16.38;;;3.28;;
48629;SDS011;34426;52.180;4.462;2023-04-24T11:21:46;14.73;;;2.38;;
48629;SDS011;34426;52.180;4.462;2023-04-24T11:24:23;27.50;;;3.17;;
48629;SDS011;34426;52.180;4.462;2023-04-24T11:26:53;25.02;;;3.03;;
48629;SDS011;34426;52.180;4.462;2023-04-24T11:29:19;18.23;;;3.35;;
48629;SDS011;34426;52.180;4.462;2023-04-24T11:31:48;27.65;;;3.58;;
48629;SDS011;34426;52.180;4.462;2023-04-24T11:34:15;21.70;;;3.92;;
48629;SDS011;34426;52.180;4.462;2023-04-24T11:36:42;28.00;;;3.55;;
48629;SDS011;34426;52.180;4.462;2023-04-24T11:39:08;33.83;;;3.72;;
48629;SDS011;34426;52.180;4.462;2023-04-24T11:41:34;32.10;;;4.95;;
48629;SDS011;34426;52.180;4.462;2023-04-24T11:43:59;25.42;;;3.45;;
48629;SDS011;34426;52.180;4.462;2023-04-24T11:46:28;22.15;;;3.80;;
48629;SDS011;34426;52.180;4.462;2023-04-24T11:48:55;24.63;;;4.13;;
48629;SDS011;34426;52.180;4.462;2023-04-24T11:51:23;19.60;;;3.90;;
48629;SDS011;34426;52.180;4.462;2023-04-24T11:53:49;26.73;;;4.78;;
48629;SDS011;34426;52.180;4.462;2023-04-24T11:56:16;21.90;;;5.15;;
48629;SDS011;34426;52.180;4.462;2023-04-24T11:58:43;26.85;;;4.53;;
48629;SDS011;34426;52.180;4.462;2023-04-24T12:01:12;33.78;;;4.78;;
48629;SDS011;34426;52.180;4.462;2023-04-24T12:03:38;21.35;;;3.95;;
48629;SDS011;34426;52.180;4.462;2023-04-24T12:06:07;29.13;;;5.28;;
48629;SDS011;34426;52.180;4.462;2023-04-24T12:08:34;32.92;;;5.18;;
48629;SDS011;34426;52.180;4.462;2023-04-24T12:11:00;30.38;;;5.40;;
48629;SDS011;34426;52.180;4.462;2023-04-24T12:13:27;25.55;;;4.28;;
48629;SDS011;34426;52.180;4.462;2023-04-24T12:15:56;23.70;;;5.05;;
48629;SDS011;34426;52.180;4.462;2023-04-24T12:18:22;26.00;;;4.60;;
48629;SDS011;34426;52.180;4.462;2023-04-24T12:20:47;28.25;;;4.70;;
48629;SDS011;34426;52.180;4.462;2023-04-24T12:23:13;29.42;;;5.03;;
48629;SDS011;34426;52.180;4.462;2023-04-24T12:25:40;21.95;;;4.50;;
48629;SDS011;34426;52.180;4.462;2023-04-24T12:28:09;24.35;;;4.00;;
48629;SDS011;34426;52.180;4.462;2023-04-24T12:30:39;22.23;;;4.15;;
48629;SDS011;34426;52.180;4.462;2023-04-24T12:33:05;24.73;;;3.92;;
48629;SDS011;34426;52.180;4.462;2023-04-24T12:35:32;22.80;;;4.95;;
48629;SDS011;34426;52.180;4.462;2023-04-24T12:38:04;25.17;;;4.30;;
48629;SDS011;34426;52.180;4.462;2023-04-24T12:40:31;29.08;;;5.22;;
48629;SDS011;34426;52.180;4.462;2023-04-24T12:42:58;23.95;;;3.55;;
48629;SDS011;34426;52.180;4.462;2023-04-24T12:45:24;24.38;;;4.22;;
48629;SDS011;34426;52.180;4.462;2023-04-24T12:47:49;17.95;;;3.95;;
48629;SDS011;34426;52.180;4.462;2023-04-24T12:50:15;18.63;;;3.88;;
48629;SDS011;34426;52.180;4.462;2023-04-24T12:52:41;22.92;;;4.03;;
48629;SDS011;34426;52.180;4.462;2023-04-24T12:55:10;28.30;;;4.28;;
48629;SDS011;34426;52.180;4.462;2023-04-24T12:57:36;23.35;;;4.30;;
48629;SDS011;34426;52.180;4.462;2023-04-24T13:00:05;25.65;;;4.45;;
48629;SDS011;34426;52.180;4.462;2023-04-24T13:02:31;19.70;;;3.78;;
48629;SDS011;34426;52.180;4.462;2023-04-24T13:04:58;27.73;;;4.85;;
48629;SDS011;34426;52.180;4.462;2023-04-24T13:07:24;27.85;;;5.32;;
48629;SDS011;34426;52.180;4.462;2023-04-24T13:09:54;24.08;;;5.18;;
48629;SDS011;34426;52.180;4.462;2023-04-24T13:12:20;17.95;;;3.75;;
48629;SDS011;34426;52.180;4.462;2023-04-24T13:14:46;19.50;;;5.10;;
48629;SDS011;34426;52.180;4.462;2023-04-24T13:17:13;28.98;;;4.65;;
48629;SDS011;34426;52.180;4.462;2023-04-24T13:19:40;30.45;;;5.70;;
48629;SDS011;34426;52.180;4.462;2023-04-24T13:22:09;35.35;;;4.93;;
48629;SDS011;34426;52.180;4.462;2023-04-24T13:24:38;27.98;;;4.80;;
48629;SDS011;34426;52.180;4.462;2023-04-24T13:27:04;28.58;;;5.53;;
48629;SDS011;34426;52.180;4.462;2023-04-24T13:29:30;21.20;;;4.50;;
48629;SDS011;34426;52.180;4.462;2023-04-24T13:31:58;23.58;;;4.78;;
48629;SDS011;34426;52.180;4.462;2023-04-24T13:34:26;22.45;;;5.20;;
48629;SDS011;34426;52.180;4.462;2023-04-24T13:36:52;27.42;;;5.60;;
48629;SDS011;34426;52.180;4.462;2023-04-24T13:39:19;24.63;;;4.53;;
48629;SDS011;34426;52.180;4.462;2023-04-24T13:41:45;26.35;;;5.30;;
48629;SDS011;34426;52.180;4.462;2023-04-24T13:44:13;23.42;;;5.15;;
48629;SDS011;34426;52.180;4.462;2023-04-24T13:46:39;17.13;;;4.45;;
48629;SDS011;34426;52.180;4.462;2023-04-24T13:49:05;16.25;;;3.30;;
48629;SDS011;34426;52.180;4.462;2023-04-24T13:51:33;23.95;;;5.00;;
48629;SDS011;34426;52.180;4.462;2023-04-24T13:53:58;32.08;;;5.38;;
48629;SDS011;34426;52.180;4.462;2023-04-24T13:56:24;32.92;;;6.95;;
48629;SDS011;34426;52.180;4.462;2023-04-24T13:58:49;20.38;;;4.50;;
48629;SDS011;34426;52.180;4.462;2023-04-24T14:01:15;31.88;;;5.47;;
48629;SDS011;34426;52.180;4.462;2023-04-24T14:03:40;23.02;;;4.88;;
48629;SDS011;34426;52.180;4.462;2023-04-24T14:06:06;21.75;;;5.15;;
48629;SDS011;34426;52.180;4.462;2023-04-24T14:08:33;21.80;;;4.32;;
48629;SDS011;34426;52.180;4.462;2023-04-24T14:10:59;24.20;;;3.90;;
48629;SDS011;34426;52.180;4.462;2023-04-24T14:13:24;29.40;;;5.18;;
48629;SDS011;34426;52.180;4.462;2023-04-24T14:15:50;28.60;;;5.18;;
48629;SDS011;34426;52.180;4.462;2023-04-24T14:18:16;23.45;;;4.60;;
48629;SDS011;34426;52.180;4.462;2023-04-24T14:20:42;30.52;;;5.18;;
48629;SDS011;34426;52.180;4.462;2023-04-24T14:23:07;28.55;;;5.10;;
48629;SDS011;34426;52.180;4.462;2023-04-24T14:25:36;34.28;;;6.05;;
48629;SDS011;34426;52.180;4.462;2023-04-24T14:28:02;30.83;;;5.82;;
48629;SDS011;34426;52.180;4.462;2023-04-24T14:30:27;26.25;;;6.32;;
48629;SDS011;34426;52.180;4.462;2023-04-24T14:32:53;29.52;;;5.63;;
48629;SDS011;34426;52.180;4.462;2023-04-24T14:35:18;27.63;;;4.95;;
48629;SDS011;34426;52.180;4.462;2023-04-24T14:37:44;22.67;;;4.38;;
48629;SDS011;34426;52.180;4.462;2023-04-24T14:40:10;23.48;;;4.10;;
48629;SDS011;34426;52.180;4.462;2023-04-24T14:42:40;23.35;;;4.50;;
48629;SDS011;34426;52.180;4.462;2023-04-24T14:45:06;21.90;;;4.72;;